Atmore, Alabama
Current Conditions -  °F | °C
As of 11:56 AM on Monday 24 Nov 2014 (Local Time) from KNSE Reporting Station
Scattered Clouds Scattered Clouds  
Wind Chill: 80°   Ceiling: Unl
Heat Index: 81°   Visibility: 10mi
Dew Point: 60°   Wind: 12mph
Humidity: 50%   Direction: 300°WNW
Pressure: 29.81"   Gusts: NA
Location:  31.03°N, 87.49°W
Report Text: KNSE 241756Z 30010KT 10SM FEW025 SCT100 SCT250 27/16 A2981 RMK AO2 SLP080 T02670156 10267 20194 58012 $
Loading
Personal Weather Stations






























Interactive Weather Map New forecast layout! Learn more

10-Day Weather Forecast

Advertisements
Track Severe Weather on mobile